createdAt,value
2019-03-30T00:06:40.251Z,14.33
2019-03-30T00:13:25.180Z,14.90
2019-03-30T00:20:10.803Z,14.30
2019-03-30T00:26:55.721Z,14.07
2019-03-30T00:33:40.583Z,12.83
2019-03-30T00:40:25.984Z,14.47
2019-03-30T00:47:11.042Z,14.00
2019-03-30T00:53:56.167Z,14.70
2019-03-30T01:00:41.442Z,15.13
2019-03-30T01:07:27.294Z,15.43
2019-03-30T01:14:12.258Z,13.87
2019-03-30T01:20:57.606Z,15.53
2019-03-30T01:27:42.538Z,15.48
2019-03-30T01:34:27.471Z,14.37
2019-03-30T01:41:12.331Z,14.70
2019-03-30T01:47:57.298Z,16.87
2019-03-30T01:54:42.176Z,16.80
2019-03-30T02:01:27.457Z,16.30
2019-03-30T02:08:12.363Z,15.30
2019-03-30T02:14:59.574Z,16.73
2019-03-30T02:21:44.449Z,15.87
2019-03-30T02:28:29.308Z,14.37
2019-03-30T02:35:14.336Z,16.67
2019-03-30T02:41:59.269Z,14.47
2019-03-30T02:48:44.202Z,13.93
2019-03-30T02:55:29.080Z,12.73
2019-03-30T03:02:14.213Z,16.23
2019-03-30T03:08:59.208Z,14.63
2019-03-30T03:15:44.336Z,15.00
2019-03-30T03:22:29.266Z,13.83
2019-03-30T03:29:14.123Z,16.53
2019-03-30T03:35:58.990Z,15.87
2019-03-30T03:42:43.919Z,15.43
2019-03-30T03:49:28.943Z,15.07
2019-03-30T03:56:15.456Z,15.27
2019-03-30T04:03:03.063Z,15.23
2019-03-30T04:09:51.324Z,14.23
2019-03-30T04:16:36.324Z,15.50
2019-03-30T04:23:21.780Z,15.30
2019-03-30T04:30:07.452Z,17.33
2019-03-30T04:36:52.389Z,17.27
2019-03-30T04:43:37.328Z,15.93
2019-03-30T04:50:23.263Z,17.87
2019-03-30T04:57:08.202Z,17.70
2019-03-30T05:03:53.284Z,16.73
2019-03-30T05:10:38.266Z,19.17
2019-03-30T05:17:23.131Z,18.50
2019-03-30T05:24:07.986Z,17.73
2019-03-30T05:30:52.936Z,16.33
2019-03-30T05:37:37.806Z,16.90
2019-03-30T05:44:22.796Z,15.40
2019-03-30T05:51:07.727Z,16.43
2019-03-30T05:57:52.671Z,14.73
2019-03-30T06:04:37.606Z,15.57
2019-03-30T06:11:22.778Z,15.10
2019-03-30T06:18:11.164Z,14.50
2019-03-30T06:24:54.351Z,11.87
2019-03-30T06:31:39.218Z,12.77
2019-03-30T06:38:24.672Z,13.13
2019-03-30T06:45:10.678Z,13.03
2019-03-30T06:51:55.596Z,13.80
2019-03-30T06:58:40.797Z,12.53
2019-03-30T07:05:25.970Z,13.40
2019-03-30T07:12:10.918Z,13.58
2019-03-30T07:18:57.894Z,13.55
2019-03-30T07:25:42.763Z,12.73
2019-03-30T07:32:27.635Z,13.72
2019-03-30T07:39:13.581Z,13.90
2019-03-30T07:45:58.614Z,13.70
2019-03-30T07:52:43.486Z,13.95
2019-03-30T07:59:28.446Z,15.15
2019-03-30T08:06:13.426Z,14.70
2019-03-30T08:12:58.408Z,14.60
2019-03-30T08:19:43.288Z,14.38
2019-03-30T08:26:28.229Z,15.23
2019-03-30T08:33:13.106Z,14.90
2019-03-30T08:39:57.977Z,15.70
2019-03-30T08:46:44.064Z,15.23
2019-03-30T08:53:29.105Z,14.10
2019-03-30T09:00:17.122Z,18.25
2019-03-30T09:07:01.998Z,15.20
2019-03-30T09:13:47.016Z,15.63
2019-03-30T09:20:31.890Z,16.02
2019-03-30T09:27:16.758Z,15.83
2019-03-30T09:34:01.623Z,16.90
2019-03-30T09:40:46.492Z,15.75
2019-03-30T09:47:31.368Z,16.40
2019-03-30T09:54:23.656Z,16.27
2019-03-30T10:01:02.798Z,16.62
2019-03-30T10:07:47.671Z,17.30
2019-03-30T10:14:32.706Z,16.37
2019-03-30T10:21:17.766Z,16.87
2019-03-30T10:28:03.451Z,16.32
2019-03-30T10:34:48.555Z,15.60
2019-03-30T10:41:33.426Z,19.87
2019-03-30T10:48:18.366Z,16.77
2019-03-30T10:55:03.315Z,14.30
2019-03-30T11:01:48.246Z,14.03
2019-03-30T11:08:33.115Z,12.60
2019-03-30T11:15:18.083Z,11.68
2019-03-30T11:22:03.437Z,12.23
2019-03-30T11:28:48.519Z,10.50
2019-03-30T11:35:33.854Z,10.65
2019-03-30T11:42:20.243Z,9.38
2019-03-30T11:49:05.187Z,6.97
2019-03-30T11:55:50.461Z,8.70
2019-03-30T12:02:35.603Z,7.42
2019-03-30T12:09:20.549Z,8.53
2019-03-30T12:16:05.798Z,7.33
2019-03-30T12:22:50.864Z,6.77
2019-03-30T12:29:35.863Z,7.33
2019-03-30T12:36:22.850Z,8.15
2019-03-30T12:43:09.233Z,7.47
2019-03-30T12:49:55.081Z,8.23
2019-03-30T12:56:41.058Z,7.03
2019-03-30T13:03:26.028Z,7.75
2019-03-30T13:10:11.318Z,8.23
2019-03-30T13:16:56.315Z,8.18
2019-03-30T13:23:41.189Z,8.28
2019-03-30T13:30:26.051Z,8.53
2019-03-30T13:37:18.828Z,8.28
2019-03-30T13:44:03.964Z,7.50
2019-03-30T13:50:48.942Z,8.05
2019-03-30T13:57:33.815Z,9.00
2019-03-30T14:04:18.776Z,7.70
2019-03-30T14:11:03.788Z,8.13
2019-03-30T14:17:48.681Z,9.00
2019-03-30T14:24:33.618Z,7.62
2019-03-30T14:31:18.779Z,6.87
2019-03-30T14:38:03.719Z,8.10
2019-03-30T14:44:48.755Z,8.40
2019-03-30T14:51:33.839Z,8.98
2019-03-30T14:58:18.708Z,8.90
2019-03-30T15:05:05.394Z,8.03
2019-03-30T15:11:50.408Z,8.18
2019-03-30T15:18:35.385Z,9.43
2019-03-30T15:25:21.605Z,8.40
2019-03-30T15:32:09.694Z,8.20
2019-03-30T15:38:54.695Z,8.63
2019-03-30T15:45:39.563Z,8.28
2019-03-30T15:52:24.889Z,7.95
2019-03-30T15:59:09.905Z,7.40
2019-03-30T16:05:54.910Z,7.87
2019-03-30T16:12:39.784Z,9.23
2019-03-30T16:19:24.651Z,8.60
2019-03-30T16:26:09.658Z,8.10
2019-03-30T16:32:54.590Z,8.45
2019-03-30T16:39:39.484Z,8.33
2019-03-30T16:46:24.736Z,8.20
2019-03-30T16:53:09.746Z,8.10
2019-03-30T16:59:54.687Z,8.38
2019-03-30T17:06:39.638Z,8.08
2019-03-30T17:13:24.516Z,8.85
2019-03-30T17:20:10.550Z,8.73
2019-03-30T17:26:55.483Z,8.43
2019-03-30T17:33:40.624Z,8.50
2019-03-30T17:40:25.545Z,7.78
2019-03-30T17:47:10.651Z,8.53
2019-03-30T17:53:55.643Z,7.87
2019-03-30T18:00:40.648Z,9.53
2019-03-30T18:07:26.068Z,11.30
2019-03-30T18:14:10.988Z,14.53
2019-03-30T18:20:55.927Z,18.30
2019-03-30T18:27:43.555Z,19.60
2019-03-30T18:34:29.171Z,18.87
2019-03-30T18:41:21.518Z,20.00
2019-03-30T18:48:12.401Z,24.47
2019-03-30T18:54:57.925Z,21.93
2019-03-30T19:01:42.926Z,20.50
2019-03-30T19:08:27.790Z,20.50
2019-03-30T19:15:12.932Z,21.53
2019-03-30T19:21:58.050Z,20.37
2019-03-30T19:28:55.695Z,21.17
2019-03-30T19:35:30.074Z,17.90
2019-03-30T19:42:15.901Z,14.53
2019-03-30T19:49:03.733Z,14.63
2019-03-30T19:55:49.734Z,20.53
2019-03-30T20:02:34.824Z,18.67
2019-03-30T20:09:20.950Z,17.87
2019-03-30T20:16:06.468Z,15.70
2019-03-30T20:22:51.570Z,14.93
2019-03-30T20:29:38.492Z,16.00
2019-03-30T20:36:23.567Z,15.63
2019-03-30T20:43:10.090Z,15.77
2019-03-30T20:49:56.031Z,18.20
2019-03-30T20:56:42.927Z,17.77
2019-03-30T21:03:29.036Z,17.23
2019-03-30T21:10:15.228Z,17.00
2019-03-30T21:17:03.563Z,17.03
2019-03-30T21:23:50.563Z,18.00
2019-03-30T21:30:35.829Z,16.67
2019-03-30T21:37:21.809Z,17.53
2019-03-30T21:44:21.097Z,16.00
2019-03-30T21:50:53.690Z,17.67
2019-03-30T21:57:38.998Z,18.85
2019-03-30T22:04:24.537Z,16.63
2019-03-30T22:11:09.965Z,16.10
2019-03-30T22:17:56.191Z,16.57
2019-03-30T22:24:41.875Z,17.27
2019-03-30T22:31:28.778Z,16.00
2019-03-30T22:38:13.846Z,15.40
2019-03-30T22:44:59.516Z,15.20
2019-03-30T22:51:44.873Z,15.13
2019-03-30T22:58:30.616Z,17.70
2019-03-30T23:05:15.640Z,17.60
2019-03-30T23:12:00.622Z,16.43
2019-03-30T23:18:45.710Z,16.60
2019-03-30T23:25:32.493Z,17.20
2019-03-30T23:32:17.931Z,18.00
2019-03-30T23:39:03.455Z,17.43
2019-03-30T23:45:48.450Z,16.90
2019-03-30T23:52:33.307Z,15.23
2019-03-30T23:59:18.179Z,17.50
